Warren, Connecticut
Current Conditions -  °F | °C
As of 12:15 AM on Thursday 18 Dec 2014 (Local Time) from KOXC Reporting Station
Broken Clouds Broken Clouds  
Wind Chill:   Ceiling: 9500
Heat Index:   Visibility: 10mi
Dew Point: -2°   Wind: 5mph
Humidity: 70%   Direction: 300°WNW
Pressure: 29.83"   Gusts: NA
Location:  41.6879°N, 73.3378°W
Report Text: KOXC 180415Z 30004KT 10SM BKN095 03/M02 A2983 RMK AO1
Loading
Personal Weather Stations






























Interactive Weather Map New forecast layout! Learn more

10-Day Weather Forecast

Advertisements
Track Severe Weather on mobile